createdAt,value
2018-12-02T00:01:01.606Z,80.7
2018-12-02T00:11:15.076Z,79.8
2018-12-02T00:21:39.071Z,80.3
2018-12-02T00:31:53.463Z,80.4
2018-12-02T00:42:07.216Z,80.4
2018-12-02T00:52:24.895Z,80.3
2018-12-02T01:02:38.803Z,80.3
2018-12-02T01:12:55.631Z,81.3
2018-12-02T01:23:10.210Z,80.9
2018-12-02T01:33:31.435Z,80.8
2018-12-02T01:43:45.694Z,80.6
2018-12-02T01:54:07.911Z,80.9
2018-12-02T02:04:21.841Z,80.6
2018-12-02T02:14:41.604Z,80.6
2018-12-02T02:24:55.753Z,81.1
2018-12-02T02:35:12.487Z,80.8
2018-12-02T02:45:35.526Z,80.9
2018-12-02T02:56:22.441Z,80.9
2018-12-02T03:07:07.516Z,80.9
2018-12-02T03:17:19.820Z,81.2
2018-12-02T03:27:33.586Z,81.3
2018-12-02T03:37:47.757Z,80.8
2018-12-02T03:48:13.423Z,81.2
2018-12-02T03:58:27.305Z,81.3
2018-12-02T04:08:41.022Z,81.9
2018-12-02T04:18:59.503Z,82.5
2018-12-02T04:29:44.090Z,82.0
2018-12-02T04:40:41.450Z,82.6
2018-12-02T04:51:29.619Z,83.4
2018-12-02T05:01:42.671Z,83.2
2018-12-02T05:12:27.572Z,82.8
2018-12-02T05:22:40.906Z,82.6
2018-12-02T05:32:55.636Z,82.7
2018-12-02T05:43:11.019Z,82.7
2018-12-02T05:53:24.796Z,82.5
2018-12-02T06:03:38.997Z,82.8
2018-12-02T06:13:52.813Z,83.5
2018-12-02T06:24:06.569Z,83.1
2018-12-02T06:34:20.215Z,83.1
2018-12-02T06:45:04.906Z,83.0
2018-12-02T06:55:18.463Z,83.2
2018-12-02T07:05:32.742Z,83.2
2018-12-02T07:16:18.166Z,83.3
2018-12-02T07:26:31.573Z,83.4
2018-12-02T07:36:44.504Z,83.1
2018-12-02T07:46:58.104Z,83.4
2018-12-02T07:57:12.081Z,83.5
2018-12-02T08:07:25.190Z,83.7
2018-12-02T08:17:38.757Z,83.6
2018-12-02T08:27:52.469Z,84.1
2018-12-02T08:38:05.854Z,83.9
2018-12-02T08:48:17.293Z,84.3
2018-12-02T09:00:33.458Z,83.9
2018-12-02T09:10:46.337Z,84.3
2018-12-02T09:21:07.263Z,84.3
2018-12-02T09:31:21.460Z,84.8
2018-12-02T09:42:07.090Z,84.8
2018-12-02T09:53:22.885Z,85.1
2018-12-02T10:03:38.459Z,83.7
2018-12-02T10:13:52.710Z,84.1
2018-12-02T10:24:40.956Z,85.3
2018-12-02T10:35:13.267Z,86.2
2018-12-02T10:45:37.974Z,85.4
2018-12-02T10:56:24.195Z,85.7
2018-12-02T11:06:36.321Z,85.8
2018-12-02T11:16:49.729Z,86.2
2018-12-02T11:27:06.279Z,86.6
2018-12-02T11:37:52.359Z,87.0
2018-12-02T11:50:29.296Z,87.4
2018-12-02T12:01:14.143Z,87.5
2018-12-02T12:11:59.546Z,88.8
2018-12-02T12:27:08.973Z,87.4
2018-12-02T12:37:22.249Z,86.8
2018-12-02T12:48:08.734Z,87.1
2018-12-02T12:58:22.741Z,88.4
2018-12-02T13:08:38.620Z,88.2
2018-12-02T13:18:53.266Z,87.3
2018-12-02T13:29:06.777Z,87.5
2018-12-02T13:39:56.705Z,87.1
2018-12-02T13:50:51.093Z,86.1
2018-12-02T14:01:56.079Z,86.1
2018-12-02T14:12:12.269Z,87.4
2018-12-02T14:23:03.844Z,86.2
2018-12-02T14:33:26.090Z,85.6
2018-12-02T14:43:44.822Z,86.5
2018-12-02T14:54:11.486Z,86.6
2018-12-02T15:05:00.407Z,85.9
2018-12-02T15:16:00.160Z,85.9
2018-12-02T15:27:16.354Z,85.4
2018-12-02T15:46:28.041Z,84.5
2018-12-02T15:57:59.694Z,84.2
2018-12-02T16:12:52.638Z,84.2
2018-12-02T16:30:00.320Z,83.3
2018-12-02T17:08:29.099Z,83.6
2018-12-02T17:19:42.026Z,83.7
2018-12-02T17:30:56.771Z,84.9
2018-12-02T17:41:15.507Z,84.9
2018-12-02T17:51:30.194Z,85.1
2018-12-02T18:01:43.893Z,85.1
2018-12-02T18:11:58.276Z,84.4
2018-12-02T18:22:12.700Z,84.5
2018-12-02T22:01:20.076Z,83.8
2018-12-02T22:11:33.880Z,83.5
2018-12-02T22:22:19.714Z,83.4
2018-12-02T22:32:32.171Z,83.4
2018-12-02T22:42:44.198Z,84.0
2018-12-02T22:53:34.370Z,85.2
2018-12-02T23:04:03.335Z,84.6
2018-12-02T23:14:29.558Z,84.6
2018-12-02T23:25:16.956Z,85.0
2018-12-02T23:35:31.353Z,85.4
2018-12-02T23:45:45.365Z,85.5
2018-12-02T23:56:30.881Z,85.2
